Terminal Aerodrome Forecast
Issued by NWS Charleston, WV

Current Version | Previous Version | Graphics & Text | Print | Product List | Glossary On
Versions: 1 2 3 4 5 6 7 8 9 10 11 12 13 14 15 16 17 18 19 20 21
000
FTUS41 KRLX 190500
TAFBKW
TAF
KBKW 190535Z 1906/2006 28007KT P6SM SKC
     FM191100 22005KT P6SM SKC
     FM191500 21010G15KT P6SM BKN200
     FM200500 23010G17KT P6SM BKN050=

USA.gov is the U.S. government's official web portal to all federal, state and local government web resources and services.